Orbital elements of FENGYUN 1C DEB
| Launched | 9 May 1999 |
| Flight ended | – |
| Launch site | Taiyuan Space Center, PRC |
| Owner | People's Republic of China |
| NORAD ID | 30393 |
| Date fetched |
Epoch osculation |
Inc. [°] |
Ecc. | RA asc node [hr] |
Arg Peri. [°] |
Mean anom [°] |
Mean motion [rev/day] |
Abs. mag |
| Date fetched |
Epoch osculation |
Inc. [°] |
Ecc. | RA asc node [hr] |
Arg Peri. [°] |
Mean anom [°] |
Mean motion [rev/day] |
Abs. mag |
| 2026 May 05 17:57 | 2026 May 05 03:20:35 | 99.1384 | 0.00707 | 12.5156 | 225.9225 | 163.1021 | 13.99041 | – |
| 2026 May 04 17:57 | 2026 Apr 30 15:47:58 | 99.1393 | 0.00704 | 12.2177 | 238.3976 | 163.1021 | 13.99041 | – |
| 2026 May 03 17:57 | 2026 Apr 30 15:47:58 | 99.1393 | 0.00704 | 12.2177 | 238.3976 | 163.1021 | 13.99041 | – |
| 2026 May 02 17:57 | 2026 Apr 30 15:47:58 | 99.1393 | 0.00704 | 12.2177 | 238.3976 | 163.1021 | 13.99041 | – |
| 2026 May 01 17:56 | 2026 Apr 30 15:47:58 | 99.1393 | 0.00704 | 12.2177 | 238.3976 | 163.1021 | 13.99041 | – |
| 2026 Apr 30 17:56 | 2026 Apr 30 15:47:58 | 99.1393 | 0.00704 | 12.2177 | 238.3976 | 163.1021 | 13.99041 | – |
| 2026 Apr 29 17:57 | 2026 Apr 24 10:03:10 | 99.1407 | 0.00699 | 11.8027 | 255.8113 | 163.1021 | 13.99041 | – |
| 2026 Apr 28 17:56 | 2026 Apr 24 10:03:10 | 99.1407 | 0.00699 | 11.8027 | 255.8113 | 163.1021 | 13.99041 | – |
| 2026 Apr 27 17:58 | 2026 Apr 24 10:03:10 | 99.1407 | 0.00699 | 11.8027 | 255.8113 | 163.1021 | 13.99041 | – |
| 2026 Apr 26 17:58 | 2026 Apr 24 10:03:10 | 99.1407 | 0.00699 | 11.8027 | 255.8113 | 163.1021 | 13.99041 | – |
| 2026 Apr 25 17:58 | 2026 Apr 24 10:03:10 | 99.1407 | 0.00699 | 11.8027 | 255.8113 | 163.1021 | 13.99041 | – |
| 2026 Apr 24 17:59 | 2026 Apr 24 10:03:10 | 99.1407 | 0.00699 | 11.8027 | 255.8113 | 163.1021 | 13.99041 | – |
| 2026 Apr 23 17:57 | 2026 Apr 19 02:52:15 | 99.1415 | 0.00697 | 11.4502 | 270.6328 | 163.1021 | 13.99041 | – |
| 2026 Apr 22 17:57 | 2026 Apr 19 02:52:15 | 99.1415 | 0.00697 | 11.4502 | 270.6328 | 163.1021 | 13.99041 | – |
| 2026 Apr 21 17:57 | 2026 Apr 19 02:52:15 | 99.1415 | 0.00697 | 11.4502 | 270.6328 | 163.1021 | 13.99041 | – |
| 2026 Apr 20 17:57 | 2026 Apr 19 02:52:15 | 99.1415 | 0.00697 | 11.4502 | 270.6328 | 163.1021 | 13.99041 | – |
| 2026 Apr 19 17:58 | 2026 Apr 19 02:52:15 | 99.1415 | 0.00697 | 11.4502 | 270.6328 | 163.1021 | 13.99041 | – |
| 2026 Apr 18 17:56 | 2026 Apr 13 04:21:44 | 99.1421 | 0.00695 | 11.0552 | 287.2106 | 163.1021 | 13.99041 | – |
| 2026 Apr 16 17:57 | 2026 Apr 13 04:21:44 | 99.1421 | 0.00695 | 11.0552 | 287.2106 | 163.1021 | 13.99041 | – |
| 2026 Apr 14 17:57 | 2026 Apr 13 04:21:44 | 99.1421 | 0.00695 | 11.0552 | 287.2106 | 163.1021 | 13.99041 | – |
| 2026 Apr 13 17:57 | 2026 Apr 13 04:21:44 | 99.1421 | 0.00695 | 11.0552 | 287.2106 | 163.1021 | 13.99041 | – |
| 2026 Apr 12 17:57 | 2026 Apr 08 15:09:43 | 99.1422 | 0.00695 | 10.7525 | 299.8811 | 163.1021 | 13.99041 | – |
| 2026 Apr 11 17:57 | 2026 Apr 08 15:09:43 | 99.1422 | 0.00695 | 10.7525 | 299.8811 | 163.1021 | 13.99041 | – |
| 2026 Apr 10 17:58 | 2026 Apr 08 15:09:43 | 99.1422 | 0.00695 | 10.7525 | 299.8811 | 163.1021 | 13.99041 | – |
| 2026 Apr 09 18:01 | 2026 Apr 08 15:09:43 | 99.1422 | 0.00695 | 10.7525 | 299.8811 | 163.1021 | 13.99041 | – |
| 2026 Apr 08 17:57 | 2026 Apr 08 15:09:43 | 99.1422 | 0.00695 | 10.7525 | 299.8811 | 163.1021 | 13.99041 | – |